sensor_id;sensor_type;location;lat;lon;timestamp;temperature;humidity
43665;DHT22;29263;48.172;11.484;2023-04-24T00:00:46;10.90;99.90
43665;DHT22;29263;48.172;11.484;2023-04-24T00:03:12;10.80;99.90
43665;DHT22;29263;48.172;11.484;2023-04-24T00:05:38;10.80;99.90
43665;DHT22;29263;48.172;11.484;2023-04-24T00:08:05;10.80;99.90
43665;DHT22;29263;48.172;11.484;2023-04-24T00:10:31;10.80;99.90
43665;DHT22;29263;48.172;11.484;2023-04-24T00:12:57;10.90;99.90
43665;DHT22;29263;48.172;11.484;2023-04-24T00:15:23;10.80;99.90
43665;DHT22;29263;48.172;11.484;2023-04-24T00:17:48;10.80;99.90
43665;DHT22;29263;48.172;11.484;2023-04-24T00:20:15;10.70;99.90
43665;DHT22;29263;48.172;11.484;2023-04-24T00:22:40;10.70;99.90
43665;DHT22;29263;48.172;11.484;2023-04-24T00:25:06;10.60;99.90
43665;DHT22;29263;48.172;11.484;2023-04-24T00:27:35;10.60;99.90
43665;DHT22;29263;48.172;11.484;2023-04-24T00:30:02;10.50;99.90
43665;DHT22;29263;48.172;11.484;2023-04-24T00:32:28;10.50;99.90
43665;DHT22;29263;48.172;11.484;2023-04-24T00:34:54;10.60;99.90
43665;DHT22;29263;48.172;11.484;2023-04-24T00:37:19;10.60;99.90
43665;DHT22;29263;48.172;11.484;2023-04-24T00:39:45;10.60;99.90
43665;DHT22;29263;48.172;11.484;2023-04-24T00:42:11;10.60;99.90
43665;DHT22;29263;48.172;11.484;2023-04-24T00:44:37;10.50;99.90
43665;DHT22;29263;48.172;11.484;2023-04-24T00:47:03;10.50;99.90
43665;DHT22;29263;48.172;11.484;2023-04-24T00:49:29;10.50;99.90
43665;DHT22;29263;48.172;11.484;2023-04-24T00:51:55;10.50;99.90
43665;DHT22;29263;48.172;11.484;2023-04-24T00:54:22;10.50;99.90
43665;DHT22;29263;48.172;11.484;2023-04-24T00:56:47;10.50;99.90
43665;DHT22;29263;48.172;11.484;2023-04-24T00:59:16;10.50;99.90
43665;DHT22;29263;48.172;11.484;2023-04-24T01:01:43;10.50;99.90
43665;DHT22;29263;48.172;11.484;2023-04-24T01:04:10;10.50;99.90
43665;DHT22;29263;48.172;11.484;2023-04-24T01:06:38;10.40;99.90
43665;DHT22;29263;48.172;11.484;2023-04-24T01:09:04;10.40;99.90
43665;DHT22;29263;48.172;11.484;2023-04-24T01:11:30;10.30;99.90
43665;DHT22;29263;48.172;11.484;2023-04-24T01:13:56;10.30;99.90
43665;DHT22;29263;48.172;11.484;2023-04-24T01:16:23;10.20;99.90
43665;DHT22;29263;48.172;11.484;2023-04-24T01:18:49;10.20;99.90
43665;DHT22;29263;48.172;11.484;2023-04-24T01:21:15;10.30;99.90
43665;DHT22;29263;48.172;11.484;2023-04-24T01:23:45;10.20;99.90
43665;DHT22;29263;48.172;11.484;2023-04-24T01:26:11;10.20;99.90
43665;DHT22;29263;48.172;11.484;2023-04-24T01:28:37;10.10;99.90
43665;DHT22;29263;48.172;11.484;2023-04-24T01:31:03;10.10;99.90
43665;DHT22;29263;48.172;11.484;2023-04-24T01:33:29;10.10;99.90
43665;DHT22;29263;48.172;11.484;2023-04-24T01:35:54;10.10;99.90
43665;DHT22;29263;48.172;11.484;2023-04-24T01:38:20;10.10;99.90
43665;DHT22;29263;48.172;11.484;2023-04-24T01:40:46;10.10;99.90
43665;DHT22;29263;48.172;11.484;2023-04-24T01:43:12;10.10;99.90
43665;DHT22;29263;48.172;11.484;2023-04-24T01:45:38;10.10;99.90
43665;DHT22;29263;48.172;11.484;2023-04-24T01:48:04;10.10;99.90
43665;DHT22;29263;48.172;11.484;2023-04-24T01:50:29;10.00;99.90
43665;DHT22;29263;48.172;11.484;2023-04-24T01:52:55;10.00;99.90
43665;DHT22;29263;48.172;11.484;2023-04-24T01:55:21;10.00;99.90
43665;DHT22;29263;48.172;11.484;2023-04-24T01:57:47;10.00;99.90
43665;DHT22;29263;48.172;11.484;2023-04-24T02:00:13;9.90;99.90
43665;DHT22;29263;48.172;11.484;2023-04-24T02:02:40;9.80;99.90
43665;DHT22;29263;48.172;11.484;2023-04-24T02:05:07;9.80;99.90
43665;DHT22;29263;48.172;11.484;2023-04-24T02:07:33;9.80;99.90
43665;DHT22;29263;48.172;11.484;2023-04-24T02:09:59;9.80;99.90
43665;DHT22;29263;48.172;11.484;2023-04-24T02:12:24;9.80;99.90
43665;DHT22;29263;48.172;11.484;2023-04-24T02:14:50;9.80;99.90
43665;DHT22;29263;48.172;11.484;2023-04-24T02:17:17;9.70;99.90
43665;DHT22;29263;48.172;11.484;2023-04-24T02:19:45;9.70;99.90
43665;DHT22;29263;48.172;11.484;2023-04-24T02:22:11;9.80;99.90
43665;DHT22;29263;48.172;11.484;2023-04-24T02:24:38;9.70;99.90
43665;DHT22;29263;48.172;11.484;2023-04-24T02:27:03;9.70;99.90
43665;DHT22;29263;48.172;11.484;2023-04-24T02:29:29;9.80;99.90
43665;DHT22;29263;48.172;11.484;2023-04-24T02:31:55;9.80;99.90
43665;DHT22;29263;48.172;11.484;2023-04-24T02:34:21;9.70;99.90
43665;DHT22;29263;48.172;11.484;2023-04-24T02:36:48;9.70;99.90
43665;DHT22;29263;48.172;11.484;2023-04-24T02:39:14;9.70;99.90
43665;DHT22;29263;48.172;11.484;2023-04-24T02:41:42;9.80;99.90
43665;DHT22;29263;48.172;11.484;2023-04-24T02:44:07;9.70;99.90
43665;DHT22;29263;48.172;11.484;2023-04-24T02:46:33;9.70;99.90
43665;DHT22;29263;48.172;11.484;2023-04-24T02:48:59;9.60;99.90
43665;DHT22;29263;48.172;11.484;2023-04-24T02:51:24;9.70;99.90
43665;DHT22;29263;48.172;11.484;2023-04-24T02:53:50;9.70;99.90
43665;DHT22;29263;48.172;11.484;2023-04-24T02:56:16;9.70;99.90
43665;DHT22;29263;48.172;11.484;2023-04-24T02:58:41;9.70;99.90
43665;DHT22;29263;48.172;11.484;2023-04-24T03:01:07;9.70;99.90
43665;DHT22;29263;48.172;11.484;2023-04-24T03:03:35;9.70;99.90
43665;DHT22;29263;48.172;11.484;2023-04-24T03:06:01;9.60;99.90
43665;DHT22;29263;48.172;11.484;2023-04-24T03:08:27;9.70;99.90
43665;DHT22;29263;48.172;11.484;2023-04-24T03:10:52;9.70;99.90
43665;DHT22;29263;48.172;11.484;2023-04-24T03:13:18;9.60;99.90
43665;DHT22;29263;48.172;11.484;2023-04-24T03:15:44;9.70;99.90
43665;DHT22;29263;48.172;11.484;2023-04-24T03:18:10;9.70;99.90
43665;DHT22;29263;48.172;11.484;2023-04-24T03:20:35;9.60;99.90
43665;DHT22;29263;48.172;11.484;2023-04-24T03:23:03;9.60;99.90
43665;DHT22;29263;48.172;11.484;2023-04-24T03:25:28;9.60;99.90
43665;DHT22;29263;48.172;11.484;2023-04-24T03:27:54;9.60;99.90
43665;DHT22;29263;48.172;11.484;2023-04-24T03:30:20;9.60;99.90
43665;DHT22;29263;48.172;11.484;2023-04-24T03:32:46;9.60;99.90
43665;DHT22;29263;48.172;11.484;2023-04-24T03:35:11;9.50;99.90
43665;DHT22;29263;48.172;11.484;2023-04-24T03:37:37;9.50;99.90
43665;DHT22;29263;48.172;11.484;2023-04-24T03:40:02;9.50;99.90
43665;DHT22;29263;48.172;11.484;2023-04-24T03:42:28;9.50;99.90
43665;DHT22;29263;48.172;11.484;2023-04-24T03:44:58;9.50;99.90
43665;DHT22;29263;48.172;11.484;2023-04-24T03:47:27;9.60;99.90
43665;DHT22;29263;48.172;11.484;2023-04-24T03:49:52;9.70;99.90
43665;DHT22;29263;48.172;11.484;2023-04-24T03:52:19;9.60;99.90
43665;DHT22;29263;48.172;11.484;2023-04-24T03:54:45;9.50;99.90
43665;DHT22;29263;48.172;11.484;2023-04-24T03:57:10;9.40;99.90
43665;DHT22;29263;48.172;11.484;2023-04-24T03:59:36;9.40;99.90
43665;DHT22;29263;48.172;11.484;2023-04-24T04:02:01;9.40;99.90
43665;DHT22;29263;48.172;11.484;2023-04-24T04:04:27;9.30;99.90
43665;DHT22;29263;48.172;11.484;2023-04-24T04:06:53;9.30;99.90
43665;DHT22;29263;48.172;11.484;2023-04-24T04:09:18;9.30;99.90
43665;DHT22;29263;48.172;11.484;2023-04-24T04:11:44;9.30;99.90
43665;DHT22;29263;48.172;11.484;2023-04-24T04:14:10;9.30;99.90
43665;DHT22;29263;48.172;11.484;2023-04-24T04:16:36;9.30;99.90
43665;DHT22;29263;48.172;11.484;2023-04-24T04:19:02;9.30;99.90
43665;DHT22;29263;48.172;11.484;2023-04-24T04:21:28;9.20;99.90
43665;DHT22;29263;48.172;11.484;2023-04-24T04:23:54;9.30;99.90
43665;DHT22;29263;48.172;11.484;2023-04-24T04:26:20;9.40;99.90
43665;DHT22;29263;48.172;11.484;2023-04-24T04:28:46;9.40;99.90
43665;DHT22;29263;48.172;11.484;2023-04-24T04:31:13;9.40;99.90
43665;DHT22;29263;48.172;11.484;2023-04-24T04:33:38;9.40;99.90
43665;DHT22;29263;48.172;11.484;2023-04-24T04:36:05;9.40;99.90
43665;DHT22;29263;48.172;11.484;2023-04-24T04:38:30;9.40;99.90
43665;DHT22;29263;48.172;11.484;2023-04-24T04:40:56;9.30;99.90
43665;DHT22;29263;48.172;11.484;2023-04-24T04:43:23;9.30;99.90
43665;DHT22;29263;48.172;11.484;2023-04-24T04:45:49;9.30;99.90
43665;DHT22;29263;48.172;11.484;2023-04-24T04:48:16;9.40;99.90
43665;DHT22;29263;48.172;11.484;2023-04-24T04:50:44;9.40;99.90
43665;DHT22;29263;48.172;11.484;2023-04-24T04:53:09;9.40;99.90
43665;DHT22;29263;48.172;11.484;2023-04-24T04:55:36;9.40;99.90
43665;DHT22;29263;48.172;11.484;2023-04-24T04:58:01;9.40;99.90
43665;DHT22;29263;48.172;11.484;2023-04-24T05:00:27;9.40;99.90
43665;DHT22;29263;48.172;11.484;2023-04-24T05:02:54;9.40;99.90
43665;DHT22;29263;48.172;11.484;2023-04-24T05:05:20;9.40;99.90
43665;DHT22;29263;48.172;11.484;2023-04-24T05:07:45;9.40;99.90
43665;DHT22;29263;48.172;11.484;2023-04-24T05:10:11;9.40;99.90
43665;DHT22;29263;48.172;11.484;2023-04-24T05:12:37;9.40;99.90
43665;DHT22;29263;48.172;11.484;2023-04-24T05:15:03;9.40;99.90
43665;DHT22;29263;48.172;11.484;2023-04-24T05:17:29;9.40;99.90
43665;DHT22;29263;48.172;11.484;2023-04-24T05:19:54;9.50;99.90
43665;DHT22;29263;48.172;11.484;2023-04-24T05:22:20;9.50;99.90
43665;DHT22;29263;48.172;11.484;2023-04-24T05:24:47;9.50;99.90
43665;DHT22;29263;48.172;11.484;2023-04-24T05:27:13;9.60;99.90
43665;DHT22;29263;48.172;11.484;2023-04-24T05:29:39;9.60;99.90
43665;DHT22;29263;48.172;11.484;2023-04-24T05:32:05;9.60;99.90
43665;DHT22;29263;48.172;11.484;2023-04-24T05:34:31;9.60;99.90
43665;DHT22;29263;48.172;11.484;2023-04-24T05:36:56;9.60;99.90
43665;DHT22;29263;48.172;11.484;2023-04-24T05:39:22;9.70;99.90
43665;DHT22;29263;48.172;11.484;2023-04-24T05:41:47;9.70;99.90
43665;DHT22;29263;48.172;11.484;2023-04-24T05:44:16;9.80;99.90
43665;DHT22;29263;48.172;11.484;2023-04-24T05:46:41;9.80;99.90
43665;DHT22;29263;48.172;11.484;2023-04-24T05:49:07;9.80;99.90
43665;DHT22;29263;48.172;11.484;2023-04-24T05:51:33;9.80;99.90
43665;DHT22;29263;48.172;11.484;2023-04-24T05:53:58;9.80;99.90
43665;DHT22;29263;48.172;11.484;2023-04-24T05:56:24;9.80;99.90
43665;DHT22;29263;48.172;11.484;2023-04-24T05:58:50;9.80;99.90
43665;DHT22;29263;48.172;11.484;2023-04-24T06:01:16;9.80;99.90
43665;DHT22;29263;48.172;11.484;2023-04-24T06:03:42;9.90;99.90
43665;DHT22;29263;48.172;11.484;2023-04-24T06:06:08;9.90;99.90
43665;DHT22;29263;48.172;11.484;2023-04-24T06:08:35;9.90;99.90
43665;DHT22;29263;48.172;11.484;2023-04-24T06:11:00;10.00;99.90
43665;DHT22;29263;48.172;11.484;2023-04-24T06:13:26;10.10;99.90
43665;DHT22;29263;48.172;11.484;2023-04-24T06:15:52;10.20;99.90
43665;DHT22;29263;48.172;11.484;2023-04-24T06:18:18;10.20;99.90
43665;DHT22;29263;48.172;11.484;2023-04-24T06:20:44;10.30;99.90
43665;DHT22;29263;48.172;11.484;2023-04-24T06:23:10;10.30;99.90
43665;DHT22;29263;48.172;11.484;2023-04-24T06:25:35;10.30;99.90
43665;DHT22;29263;48.172;11.484;2023-04-24T06:28:01;10.40;99.90
43665;DHT22;29263;48.172;11.484;2023-04-24T06:30:27;10.50;99.90
43665;DHT22;29263;48.172;11.484;2023-04-24T06:32:53;10.50;99.90
43665;DHT22;29263;48.172;11.484;2023-04-24T06:35:19;10.50;99.90
43665;DHT22;29263;48.172;11.484;2023-04-24T06:37:45;10.50;99.90
43665;DHT22;29263;48.172;11.484;2023-04-24T06:40:11;10.50;99.90
43665;DHT22;29263;48.172;11.484;2023-04-24T06:42:36;10.60;99.90
43665;DHT22;29263;48.172;11.484;2023-04-24T06:45:02;10.70;99.90
43665;DHT22;29263;48.172;11.484;2023-04-24T06:47:30;10.70;99.90
43665;DHT22;29263;48.172;11.484;2023-04-24T06:49:56;10.70;99.90
43665;DHT22;29263;48.172;11.484;2023-04-24T06:52:22;10.80;99.90
43665;DHT22;29263;48.172;11.484;2023-04-24T06:54:48;10.90;99.90
43665;DHT22;29263;48.172;11.484;2023-04-24T06:57:13;10.90;99.90
43665;DHT22;29263;48.172;11.484;2023-04-24T06:59:39;11.00;99.90
43665;DHT22;29263;48.172;11.484;2023-04-24T07:02:04;11.00;99.90
43665;DHT22;29263;48.172;11.484;2023-04-24T07:04:30;11.10;99.90
43665;DHT22;29263;48.172;11.484;2023-04-24T07:06:56;11.20;99.90
43665;DHT22;29263;48.172;11.484;2023-04-24T07:09:24;11.30;99.90
43665;DHT22;29263;48.172;11.484;2023-04-24T07:11:53;11.40;99.90
43665;DHT22;29263;48.172;11.484;2023-04-24T07:14:19;11.40;99.90
43665;DHT22;29263;48.172;11.484;2023-04-24T07:16:46;11.50;99.90
43665;DHT22;29263;48.172;11.484;2023-04-24T07:19:12;11.40;99.90
43665;DHT22;29263;48.172;11.484;2023-04-24T07:21:38;11.40;99.90
43665;DHT22;29263;48.172;11.484;2023-04-24T07:24:04;11.20;99.90
43665;DHT22;29263;48.172;11.484;2023-04-24T07:26:30;11.20;99.90
43665;DHT22;29263;48.172;11.484;2023-04-24T07:28:56;11.30;99.90
43665;DHT22;29263;48.172;11.484;2023-04-24T07:31:21;11.30;99.90
43665;DHT22;29263;48.172;11.484;2023-04-24T07:33:48;11.30;99.90
43665;DHT22;29263;48.172;11.484;2023-04-24T07:36:13;11.20;99.90
43665;DHT22;29263;48.172;11.484;2023-04-24T07:38:46;11.20;99.90
43665;DHT22;29263;48.172;11.484;2023-04-24T07:41:13;11.20;99.90
43665;DHT22;29263;48.172;11.484;2023-04-24T07:43:39;11.20;99.90
43665;DHT22;29263;48.172;11.484;2023-04-24T07:46:05;11.20;99.90
43665;DHT22;29263;48.172;11.484;2023-04-24T07:48:31;11.20;99.90
43665;DHT22;29263;48.172;11.484;2023-04-24T07:50:57;11.30;99.90
43665;DHT22;29263;48.172;11.484;2023-04-24T07:53:22;11.30;99.90
43665;DHT22;29263;48.172;11.484;2023-04-24T07:55:48;11.30;99.90
43665;DHT22;29263;48.172;11.484;2023-04-24T07:58:14;11.30;99.90
43665;DHT22;29263;48.172;11.484;2023-04-24T08:00:40;11.30;99.90
43665;DHT22;29263;48.172;11.484;2023-04-24T08:03:06;11.40;99.90
43665;DHT22;29263;48.172;11.484;2023-04-24T08:05:31;11.30;99.90
43665;DHT22;29263;48.172;11.484;2023-04-24T08:07:58;11.40;99.90
43665;DHT22;29263;48.172;11.484;2023-04-24T08:10:24;11.40;99.90
43665;DHT22;29263;48.172;11.484;2023-04-24T08:12:50;11.50;99.90
43665;DHT22;29263;48.172;11.484;2023-04-24T08:15:16;11.50;99.90
43665;DHT22;29263;48.172;11.484;2023-04-24T08:17:41;11.60;99.90
43665;DHT22;29263;48.172;11.484;2023-04-24T08:20:08;11.50;99.90
43665;DHT22;29263;48.172;11.484;2023-04-24T08:22:42;11.50;99.90
43665;DHT22;29263;48.172;11.484;2023-04-24T08:25:08;11.30;99.90
43665;DHT22;29263;48.172;11.484;2023-04-24T08:27:34;11.20;99.90
43665;DHT22;29263;48.172;11.484;2023-04-24T08:30:02;11.20;99.90
43665;DHT22;29263;48.172;11.484;2023-04-24T08:32:28;11.10;99.90
43665;DHT22;29263;48.172;11.484;2023-04-24T08:34:55;11.00;99.90
43665;DHT22;29263;48.172;11.484;2023-04-24T08:37:22;10.80;99.90
43665;DHT22;29263;48.172;11.484;2023-04-24T08:39:47;10.70;99.90
43665;DHT22;29263;48.172;11.484;2023-04-24T08:42:14;10.70;99.90
43665;DHT22;29263;48.172;11.484;2023-04-24T08:44:41;10.70;99.90
43665;DHT22;29263;48.172;11.484;2023-04-24T08:47:07;10.80;99.90
43665;DHT22;29263;48.172;11.484;2023-04-24T08:49:33;10.90;99.90
43665;DHT22;29263;48.172;11.484;2023-04-24T08:52:02;11.10;99.90
43665;DHT22;29263;48.172;11.484;2023-04-24T08:54:28;11.20;99.90
43665;DHT22;29263;48.172;11.484;2023-04-24T08:56:58;11.20;99.90
43665;DHT22;29263;48.172;11.484;2023-04-24T08:59:26;11.20;99.90
43665;DHT22;29263;48.172;11.484;2023-04-24T09:01:52;11.10;99.90
43665;DHT22;29263;48.172;11.484;2023-04-24T09:04:20;11.00;99.90
43665;DHT22;29263;48.172;11.484;2023-04-24T09:06:48;10.90;99.90
43665;DHT22;29263;48.172;11.484;2023-04-24T09:09:16;10.90;99.90
43665;DHT22;29263;48.172;11.484;2023-04-24T09:11:43;10.90;99.90
43665;DHT22;29263;48.172;11.484;2023-04-24T09:14:09;11.00;99.90
43665;DHT22;29263;48.172;11.484;2023-04-24T09:16:36;11.10;99.90
43665;DHT22;29263;48.172;11.484;2023-04-24T09:19:01;11.10;99.90
43665;DHT22;29263;48.172;11.484;2023-04-24T09:21:32;11.20;99.90
43665;DHT22;29263;48.172;11.484;2023-04-24T09:24:03;11.30;99.90
43665;DHT22;29263;48.172;11.484;2023-04-24T09:26:30;11.40;99.90
43665;DHT22;29263;48.172;11.484;2023-04-24T09:28:59;11.40;99.90
43665;DHT22;29263;48.172;11.484;2023-04-24T09:31:28;11.40;99.90
43665;DHT22;29263;48.172;11.484;2023-04-24T09:33:59;11.50;99.90
43665;DHT22;29263;48.172;11.484;2023-04-24T09:36:43;11.60;99.90
43665;DHT22;29263;48.172;11.484;2023-04-24T09:39:11;11.70;99.90
43665;DHT22;29263;48.172;11.484;2023-04-24T09:41:47;11.70;99.90
43665;DHT22;29263;48.172;11.484;2023-04-24T09:44:18;11.90;99.90
43665;DHT22;29263;48.172;11.484;2023-04-24T09:46:54;11.90;99.90
43665;DHT22;29263;48.172;11.484;2023-04-24T09:49:30;12.00;99.90
43665;DHT22;29263;48.172;11.484;2023-04-24T09:52:05;12.00;99.90
43665;DHT22;29263;48.172;11.484;2023-04-24T09:54:31;12.10;99.90
43665;DHT22;29263;48.172;11.484;2023-04-24T09:56:56;12.20;99.90
43665;DHT22;29263;48.172;11.484;2023-04-24T09:59:22;12.40;99.90
43665;DHT22;29263;48.172;11.484;2023-04-24T10:01:48;12.50;99.90
43665;DHT22;29263;48.172;11.484;2023-04-24T10:04:27;12.60;97.90
43665;DHT22;29263;48.172;11.484;2023-04-24T10:06:55;12.70;99.90
43665;DHT22;29263;48.172;11.484;2023-04-24T10:09:22;12.80;99.90
43665;DHT22;29263;48.172;11.484;2023-04-24T10:11:54;12.80;94.30
43665;DHT22;29263;48.172;11.484;2023-04-24T10:14:22;12.70;98.90
43665;DHT22;29263;48.172;11.484;2023-04-24T10:16:48;12.60;97.80
43665;DHT22;29263;48.172;11.484;2023-04-24T10:19:16;12.60;98.50
43665;DHT22;29263;48.172;11.484;2023-04-24T10:21:43;12.60;99.90
43665;DHT22;29263;48.172;11.484;2023-04-24T10:24:16;12.60;99.90
43665;DHT22;29263;48.172;11.484;2023-04-24T10:26:42;12.50;99.90
43665;DHT22;29263;48.172;11.484;2023-04-24T10:29:10;12.50;99.60
43665;DHT22;29263;48.172;11.484;2023-04-24T10:31:38;12.60;99.90
43665;DHT22;29263;48.172;11.484;2023-04-24T10:34:05;12.60;99.90
43665;DHT22;29263;48.172;11.484;2023-04-24T10:36:33;12.80;99.90
43665;DHT22;29263;48.172;11.484;2023-04-24T10:39:00;12.80;99.90
43665;DHT22;29263;48.172;11.484;2023-04-24T10:41:27;12.80;99.90
43665;DHT22;29263;48.172;11.484;2023-04-24T10:44:09;12.70;99.90
43665;DHT22;29263;48.172;11.484;2023-04-24T10:46:36;12.60;99.90
43665;DHT22;29263;48.172;11.484;2023-04-24T10:49:06;12.10;99.90
43665;DHT22;29263;48.172;11.484;2023-04-24T10:51:53;11.30;99.90
43665;DHT22;29263;48.172;11.484;2023-04-24T10:54:35;10.70;99.90
43665;DHT22;29263;48.172;11.484;2023-04-24T10:59:45;10.20;99.90
43665;DHT22;29263;48.172;11.484;2023-04-24T11:02:11;10.20;99.90
43665;DHT22;29263;48.172;11.484;2023-04-24T11:04:39;10.20;99.90
43665;DHT22;29263;48.172;11.484;2023-04-24T11:07:05;10.30;99.90
43665;DHT22;29263;48.172;11.484;2023-04-24T11:09:31;10.60;99.90
43665;DHT22;29263;48.172;11.484;2023-04-24T11:12:07;10.80;99.90
43665;DHT22;29263;48.172;11.484;2023-04-24T11:15:10;11.00;99.90
43665;DHT22;29263;48.172;11.484;2023-04-24T11:17:37;11.40;99.90
43665;DHT22;29263;48.172;11.484;2023-04-24T11:20:11;11.60;99.90
43665;DHT22;29263;48.172;11.484;2023-04-24T11:22:41;11.80;99.90
43665;DHT22;29263;48.172;11.484;2023-04-24T11:25:08;12.00;99.90
43665;DHT22;29263;48.172;11.484;2023-04-24T11:27:44;12.20;99.90
43665;DHT22;29263;48.172;11.484;2023-04-24T11:30:20;12.00;99.90
43665;DHT22;29263;48.172;11.484;2023-04-24T11:32:50;11.80;99.90
43665;DHT22;29263;48.172;11.484;2023-04-24T11:35:19;11.70;99.90
43665;DHT22;29263;48.172;11.484;2023-04-24T11:37:50;11.70;99.90
43665;DHT22;29263;48.172;11.484;2023-04-24T11:40:17;11.80;99.90
43665;DHT22;29263;48.172;11.484;2023-04-24T11:42:47;12.00;99.90
43665;DHT22;29263;48.172;11.484;2023-04-24T11:45:29;12.10;99.90
43665;DHT22;29263;48.172;11.484;2023-04-24T11:47:55;12.20;99.90
43665;DHT22;29263;48.172;11.484;2023-04-24T11:50:26;12.40;99.90
43665;DHT22;29263;48.172;11.484;2023-04-24T11:52:56;12.60;99.90
43665;DHT22;29263;48.172;11.484;2023-04-24T11:57:49;12.90;99.90
43665;DHT22;29263;48.172;11.484;2023-04-24T12:00:17;13.00;99.90
43665;DHT22;29263;48.172;11.484;2023-04-24T12:02:44;13.00;99.90
43665;DHT22;29263;48.172;11.484;2023-04-24T12:05:18;13.00;99.90
43665;DHT22;29263;48.172;11.484;2023-04-24T12:07:44;13.10;99.90
43665;DHT22;29263;48.172;11.484;2023-04-24T12:10:10;13.10;99.90
43665;DHT22;29263;48.172;11.484;2023-04-24T12:12:36;13.10;99.90
43665;DHT22;29263;48.172;11.484;2023-04-24T12:15:07;13.20;97.30
43665;DHT22;29263;48.172;11.484;2023-04-24T12:17:34;13.50;97.00
43665;DHT22;29263;48.172;11.484;2023-04-24T12:20:04;13.80;87.90
43665;DHT22;29263;48.172;11.484;2023-04-24T12:25:15;13.80;84.80
43665;DHT22;29263;48.172;11.484;2023-04-24T12:27:41;14.00;82.30
43665;DHT22;29263;48.172;11.484;2023-04-24T12:30:14;13.90;79.00
43665;DHT22;29263;48.172;11.484;2023-04-24T12:32:44;14.00;70.40
43665;DHT22;29263;48.172;11.484;2023-04-24T12:35:11;14.30;72.40
43665;DHT22;29263;48.172;11.484;2023-04-24T12:37:36;14.60;66.60
43665;DHT22;29263;48.172;11.484;2023-04-24T12:40:10;14.90;67.90
43665;DHT22;29263;48.172;11.484;2023-04-24T12:42:42;15.00;60.90
43665;DHT22;29263;48.172;11.484;2023-04-24T12:45:08;15.00;62.70
43665;DHT22;29263;48.172;11.484;2023-04-24T12:47:35;14.90;62.60
43665;DHT22;29263;48.172;11.484;2023-04-24T12:50:02;14.80;60.90
43665;DHT22;29263;48.172;11.484;2023-04-24T12:52:29;14.70;61.20
43665;DHT22;29263;48.172;11.484;2023-04-24T12:54:59;14.50;60.90
43665;DHT22;29263;48.172;11.484;2023-04-24T12:57:28;14.50;61.60
43665;DHT22;29263;48.172;11.484;2023-04-24T12:59:55;14.20;61.90
43665;DHT22;29263;48.172;11.484;2023-04-24T13:02:24;14.10;64.10
43665;DHT22;29263;48.172;11.484;2023-04-24T13:04:51;13.80;63.40
43665;DHT22;29263;48.172;11.484;2023-04-24T13:07:17;13.50;67.10
43665;DHT22;29263;48.172;11.484;2023-04-24T13:09:43;12.90;85.20
43665;DHT22;29263;48.172;11.484;2023-04-24T13:12:09;12.70;99.90
43665;DHT22;29263;48.172;11.484;2023-04-24T13:14:36;12.70;95.40
43665;DHT22;29263;48.172;11.484;2023-04-24T13:17:02;12.90;94.30
43665;DHT22;29263;48.172;11.484;2023-04-24T13:19:28;13.10;99.90
43665;DHT22;29263;48.172;11.484;2023-04-24T13:21:56;13.40;99.90
43665;DHT22;29263;48.172;11.484;2023-04-24T13:24:23;13.40;71.70
43665;DHT22;29263;48.172;11.484;2023-04-24T13:26:54;13.60;73.50
43665;DHT22;29263;48.172;11.484;2023-04-24T13:29:22;14.00;73.40
43665;DHT22;29263;48.172;11.484;2023-04-24T13:31:50;14.50;70.80
43665;DHT22;29263;48.172;11.484;2023-04-24T13:34:15;14.80;64.50
43665;DHT22;29263;48.172;11.484;2023-04-24T13:36:41;14.80;66.00
43665;DHT22;29263;48.172;11.484;2023-04-24T13:39:07;14.70;63.80
43665;DHT22;29263;48.172;11.484;2023-04-24T13:41:33;14.50;63.20
43665;DHT22;29263;48.172;11.484;2023-04-24T13:43:59;14.30;61.20
43665;DHT22;29263;48.172;11.484;2023-04-24T13:46:24;14.30;57.30
43665;DHT22;29263;48.172;11.484;2023-04-24T13:48:50;14.30;59.00
43665;DHT22;29263;48.172;11.484;2023-04-24T13:51:16;14.40;59.50
43665;DHT22;29263;48.172;11.484;2023-04-24T13:53:42;14.80;57.20
43665;DHT22;29263;48.172;11.484;2023-04-24T13:56:07;15.10;53.00
43665;DHT22;29263;48.172;11.484;2023-04-24T13:58:34;15.40;51.30
43665;DHT22;29263;48.172;11.484;2023-04-24T14:01:02;15.30;51.60
43665;DHT22;29263;48.172;11.484;2023-04-24T14:03:28;15.30;54.40
43665;DHT22;29263;48.172;11.484;2023-04-24T14:05:54;15.10;55.90
43665;DHT22;29263;48.172;11.484;2023-04-24T14:08:20;14.60;57.80
43665;DHT22;29263;48.172;11.484;2023-04-24T14:10:45;14.30;59.90
43665;DHT22;29263;48.172;11.484;2023-04-24T14:13:11;14.10;60.40
43665;DHT22;29263;48.172;11.484;2023-04-24T14:15:37;14.00;60.50
43665;DHT22;29263;48.172;11.484;2023-04-24T14:18:03;14.00;60.10
43665;DHT22;29263;48.172;11.484;2023-04-24T14:20:29;14.10;59.30
43665;DHT22;29263;48.172;11.484;2023-04-24T14:22:55;14.70;56.90
43665;DHT22;29263;48.172;11.484;2023-04-24T14:25:23;15.40;57.00
43665;DHT22;29263;48.172;11.484;2023-04-24T14:27:49;15.90;53.80
43665;DHT22;29263;48.172;11.484;2023-04-24T14:30:15;16.70;50.20
43665;DHT22;29263;48.172;11.484;2023-04-24T14:32:41;17.60;49.00
43665;DHT22;29263;48.172;11.484;2023-04-24T14:35:07;18.30;47.00
43665;DHT22;29263;48.172;11.484;2023-04-24T14:37:33;18.80;45.60
43665;DHT22;29263;48.172;11.484;2023-04-24T14:39:59;18.90;45.30
43665;DHT22;29263;48.172;11.484;2023-04-24T14:42:24;17.90;45.50
43665;DHT22;29263;48.172;11.484;2023-04-24T14:44:50;17.00;46.50
43665;DHT22;29263;48.172;11.484;2023-04-24T14:47:16;16.70;49.00
43665;DHT22;29263;48.172;11.484;2023-04-24T14:49:50;16.50;49.30
43665;DHT22;29263;48.172;11.484;2023-04-24T14:52:15;16.50;47.70
43665;DHT22;29263;48.172;11.484;2023-04-24T14:54:42;16.70;47.20
43665;DHT22;29263;48.172;11.484;2023-04-24T14:57:07;16.60;46.50
43665;DHT22;29263;48.172;11.484;2023-04-24T14:59:33;17.20;47.60
43665;DHT22;29263;48.172;11.484;2023-04-24T15:01:59;17.60;45.80
43665;DHT22;29263;48.172;11.484;2023-04-24T15:04:25;17.70;45.00
43665;DHT22;29263;48.172;11.484;2023-04-24T15:06:51;17.60;45.00
43665;DHT22;29263;48.172;11.484;2023-04-24T15:09:18;17.30;46.60
43665;DHT22;29263;48.172;11.484;2023-04-24T15:11:43;17.00;46.50
43665;DHT22;29263;48.172;11.484;2023-04-24T15:14:09;16.40;47.50
43665;DHT22;29263;48.172;11.484;2023-04-24T15:16:35;15.60;48.70
43665;DHT22;29263;48.172;11.484;2023-04-24T15:19:00;15.30;50.60
43665;DHT22;29263;48.172;11.484;2023-04-24T15:21:26;15.50;50.00
43665;DHT22;29263;48.172;11.484;2023-04-24T15:23:52;16.30;49.80
43665;DHT22;29263;48.172;11.484;2023-04-24T15:26:18;16.40;48.90